메인 페이지
METAR-TAF:

METAR-TAF

공항 :

쿠리치바, 파라나, 브라질

위도: 25-26S, 경도: 049-16W, 고도: 924m

현재 날씨관측

예보는 5 시간 3분 전, 01:00시(UTC)에 발표되었습니다.
7kt
온도 11°C
습도 87%
기압 1027 hPa
시정 10km 이상
고도 600ft 상공 구름 많음

METAR: SBBI 230100Z 10007KT 9999 BKN006 11/09 Q1027

시각: 03:03 (06:03 UTC)

예보

예보는 9 시간 3분 전, 21:00시(UTC)에 발표되었습니다.
예보 대상 시간: 23일 00시부터 23일 12시까지 (UTC)
6kt
시정: 8000m
고도 400ft 상공 구름 많음
확률 40%
23일 02시부터 23일 06시까지 (UTC)
시정: 4000m
고도 200ft 상공 구름 많음
고도 1200ft 상공 구름 많음
박무
전환 중
23일 10시부터 23일 12시까지 (UTC)
동남동8kt
시정: 8000m
고도 1500ft 상공 구름 많음

TAF: SBBI 222100Z 2300/2312 08006KT 8000 BKN004 TN09/2309Z TX11/2312Z PROB40 2302/2306 4000 BR BKN002 BKN012 BECMG 2310/2312 11008KT 8000 BKN015 RMK PAY

4,000개 이상의 공항 관측 자료 및 예보 (METAR 및 TAF 보고).

지도상에서 검색 가능한 기상관측소가 노란 점과 빨간 점으로 표시되어 있습니다.

기상관측소 명을 보려면 표시 위로 마우스를 이동하세요.

날씨 관측과 예보를 보려면 클릭하세요.

지도 변경 : 확대하려면 엑스 표시가 있는 녹색 버튼, 축소하려면 빼기 표시가 있는 녹색 버튼, 다음 페이지의 지도를 보려면 녹색 화살표를 클릭하세요.


METAR-TAF: